< < Back
Terminal Aerodrome Forecast


Current Version              Previous Versions:   1  2  3  4  5  6  7  8  9  

Terminal Aerodrome Forecast

924
FTUS42 KILM 231700
TAFILM
TAF
KILM 231726Z 2318/2418 30010KT P6SM SKC
     FM232300 28004KT P6SM SKC
     FM240600 35004KT P6SM SKC=

Latest METAR

734
SAUS70 KWBC 241700 RRG
MTRILM
METAR KILM 241653Z 00000KT 10SM CLR 19/08 A3003 RMK AO2 SLP167
T01940083


USA.gov is the U.S. government's official web portal to all federal, state and local government web resources and services.